Time;durP1;ratioP1;P1;durP2;ratioP2;P2;SDS_P1;SDS_P2;PMS_P1;PMS_P2;Temp;Humidity;BMP_temperature;BMP_pressure;BME280_temperature;BME280_humidity;BME280_pressure;Samples;Min_cycle;Max_cycle;Signal;HPM_P1;HPM_P2
2022/12/15 00:40:15;;;;;;;30.58;12.93;;;-2.50;99.90;;;;;;4170993;28;20055;-62
2022/12/15 00:42:16;;;;;;;22.52;11.68;;;-2.50;99.90;;;;;;4171407;28;20461;-62
2022/12/15 00:44:16;;;;;;;24.27;12.35;;;-2.50;99.90;;;;;;4182107;28;20033;-62
2022/12/15 00:48:37;;;;;;;20.67;10.82;;;-2.60;99.90;;;;;;4183063;28;20033;-62
2022/12/15 00:50:52;;;;;;;23.83;11.55;;;-2.60;99.90;;;;;;4173961;28;20392;-62
2022/12/15 01:21:01;;;;;;;32.25;14.63;;;-2.60;99.90;;;;;;4194243;28;20037;-62
2022/12/15 01:23:01;;;;;;;27.75;14.00;;;-2.60;99.90;;;;;;4196817;28;20028;-62
2022/12/15 01:25:03;;;;;;;31.13;15.40;;;-2.60;99.90;;;;;;4194407;28;20039;-64
2022/12/15 01:27:03;;;;;;;31.45;14.30;;;-2.60;99.90;;;;;;4195026;28;20033;-62
2022/12/15 01:29:04;;;;;;;28.58;14.30;;;-2.60;99.90;;;;;;4194531;28;20021;-62
2022/12/15 01:31:11;;;;;;;31.77;14.63;;;-2.60;99.90;;;;;;4194682;28;20112;-63
2022/12/15 01:33:12;;;;;;;28.58;13.88;;;-2.60;99.90;;;;;;4196361;28;20484;-62
2022/12/15 01:35:13;;;;;;;29.13;13.35;;;-2.60;99.90;;;;;;4193515;28;20049;-62
2022/12/15 01:37:14;;;;;;;27.02;13.45;;;-2.50;99.90;;;;;;4196141;28;20039;-62
2022/12/15 01:39:15;;;;;;;24.73;13.35;;;-2.50;99.90;;;;;;4195075;28;20047;-62
2022/12/15 01:41:15;;;;;;;37.83;14.23;;;-2.60;99.90;;;;;;4193251;28;20040;-62
2022/12/15 01:43:21;;;;;;;32.13;14.13;;;-2.50;99.90;;;;;;4196568;28;20037;-62
2022/12/15 01:45:27;;;;;;;26.17;12.60;;;-2.50;99.90;;;;;;4193124;28;20087;-62
2022/12/15 01:47:28;;;;;;;22.83;12.10;;;-2.50;99.90;;;;;;4181076;28;20720;-62
2022/12/15 01:49:31;;;;;;;23.45;12.00;;;-2.50;99.90;;;;;;4195779;28;20032;-62
2022/12/15 01:51:32;;;;;;;;;;;-2.50;99.90;;;;;;4191532;28;20037;-62
2022/12/15 01:53:39;;;;;;;29.55;12.80;;;-2.50;99.90;;;;;;4191700;28;19909;-62
2022/12/15 01:55:43;;;;;;;23.70;12.15;;;-2.50;99.90;;;;;;4193283;28;20036;-62
2022/12/15 01:57:45;;;;;;;26.60;12.68;;;-2.50;99.90;;;;;;4194858;28;20040;-62
2022/12/15 01:59:51;;;;;;;27.48;13.32;;;-2.50;99.90;;;;;;4195184;28;20112;-62
2022/12/15 02:01:52;;;;;;;24.20;11.95;;;-2.50;99.90;;;;;;4187530;28;20032;-62
2022/12/15 02:03:56;;;;;;;22.75;12.30;;;-2.50;99.90;;;;;;4189724;28;20729;-62
2022/12/15 02:05:59;;;;;;;23.50;12.02;;;-2.60;99.90;;;;;;4177923;28;20033;-62
2022/12/15 02:08:01;;;;;;;24.60;11.95;;;-2.70;99.90;;;;;;4177677;28;20029;-62
2022/12/15 02:13:05;;;;;;;28.65;13.35;;;-2.70;99.90;;;;;;4160832;27;20428;-62
2022/12/15 02:15:27;;;;;;;30.15;13.32;;;-2.80;99.90;;;;;;4157316;28;20068;-62
2022/12/15 02:17:46;;;;;;;29.27;14.40;;;-2.80;99.90;;;;;;4144620;28;20448;-62
2022/12/15 02:20:00;;;;;;;30.15;14.30;;;-2.80;99.90;;;;;;4145589;28;20037;-61
2022/12/15 02:22:15;;;;;;;30.73;13.45;;;-2.80;99.90;;;;;;4158219;28;20507;-62
2022/12/15 02:24:38;;;;;;;28.33;14.25;;;-2.80;99.90;;;;;;4156906;28;20461;-61
2022/12/15 02:27:16;;;;;;;29.42;13.77;;;-2.70;99.90;;;;;;4155068;28;20038;-62
2022/12/15 02:29:47;;;;;;;32.75;14.00;;;-2.70;99.90;;;;;;4174850;28;20036;-62
2022/12/15 02:32:05;;;;;;;29.23;13.57;;;-2.70;99.90;;;;;;4157636;28;20048;-62
2022/12/15 02:34:29;;;;;;;24.10;12.32;;;-2.70;99.90;;;;;;4153584;28;20416;-62
2022/12/15 02:36:40;;;;;;;24.83;12.38;;;-2.70;99.90;;;;;;4156555;28;20038;-62
2022/12/15 02:38:41;;;;;;;25.02;12.70;;;-2.70;99.90;;;;;;4158767;28;20045;-62
2022/12/15 02:40:42;;;;;;;27.27;13.20;;;-2.70;99.90;;;;;;4157769;28;20038;-61
2022/12/15 02:42:50;;;;;;;24.08;12.70;;;-2.60;99.90;;;;;;4158932;28;20048;-62
2022/12/15 02:44:54;;;;;;;23.77;11.27;;;-2.70;99.90;;;;;;4165013;28;20041;-61
2022/12/15 02:47:26;;;;;;;24.70;12.35;;;-2.70;99.90;;;;;;4155332;28;20029;-61
2022/12/15 02:49:54;;;;;;;25.63;13.10;;;-2.70;99.90;;;;;;4155802;28;20122;-62
2022/12/15 02:52:39;;;;;;;26.20;12.35;;;-2.70;99.90;;;;;;4154101;28;20049;-62
2022/12/15 02:54:48;;;;;;;27.23;12.82;;;-2.80;99.90;;;;;;4145509;28;20065;-62
2022/12/15 02:56:57;;;;;;;31.05;13.93;;;-2.70;99.90;;;;;;4150535;28;20476;-62
2022/12/15 02:59:12;;;;;;;29.63;13.05;;;-2.70;99.90;;;;;;4156489;28;20056;-62
2022/12/15 03:01:21;;;;;;;26.58;13.40;;;-2.60;99.90;;;;;;4157231;28;20485;-62
2022/12/15 03:03:36;;;;;;;26.17;12.93;;;-2.60;99.90;;;;;;4157931;28;20036;-62
2022/12/15 03:05:36;;;;;;;;;;;-2.60;99.90;;;;;;4151394;28;20041;-62
2022/12/15 03:07:37;;;;;;;26.70;12.55;;;-2.60;99.90;;;;;;4151391;28;19909;-61
2022/12/15 03:09:38;;;;;;;26.00;12.57;;;-2.60;99.90;;;;;;4152349;28;20044;-63
2022/12/15 03:11:39;;;;;;;31.67;13.20;;;-2.50;99.90;;;;;;4146649;28;20034;-62
2022/12/15 03:13:39;;;;;;;26.05;13.98;;;-2.50;99.90;;;;;;4143466;28;20038;-62
2022/12/15 03:15:40;;;;;;;30.58;15.15;;;-2.50;99.90;;;;;;4159866;28;20057;-62
2022/12/15 03:17:41;;;;;;;27.35;13.75;;;-2.50;99.90;;;;;;4152062;28;20064;-62
2022/12/15 03:19:41;;;;;;;29.70;14.32;;;-2.40;99.90;;;;;;4153095;28;20030;-62
2022/12/15 03:21:42;;;;;;;30.70;14.77;;;-2.50;99.90;;;;;;4169418;28;20041;-62
2022/12/15 03:23:43;;;;;;;28.55;13.63;;;-2.40;99.90;;;;;;4148717;28;20034;-62
2022/12/15 03:25:45;;;;;;;30.55;13.52;;;-2.50;99.90;;;;;;4154190;28;20034;-62
2022/12/15 03:27:46;;;;;;;30.13;14.18;;;-2.40;99.90;;;;;;4146340;28;20092;-62
2022/12/15 03:29:46;;;;;;;26.85;13.00;;;-2.40;99.90;;;;;;4146628;28;20038;-62
2022/12/15 03:31:47;;;;;;;31.55;14.75;;;-2.40;99.90;;;;;;4145805;28;20128;-62
2022/12/15 03:33:48;;;;;;;29.70;14.15;;;-2.40;99.90;;;;;;4146122;28;20038;-62
2022/12/15 03:35:50;;;;;;;32.15;13.98;;;-2.40;99.90;;;;;;4154432;28;20037;-62
2022/12/15 03:37:50;;;;;;;28.85;13.57;;;-2.40;99.90;;;;;;4151214;28;20400;-62
2022/12/15 03:39:51;;;;;;;33.55;13.90;;;-2.40;99.90;;;;;;4144046;28;20034;-62
2022/12/15 03:41:51;;;;;;;29.55;14.32;;;-2.40;99.90;;;;;;4145925;28;20044;-63
2022/12/15 03:43:52;;;;;;;30.98;14.32;;;-2.40;99.90;;;;;;4147297;28;20045;-62
2022/12/15 03:45:52;;;;;;;33.45;14.60;;;-2.50;99.90;;;;;;4153491;28;20042;-62
2022/12/15 03:47:54;;;;;;;29.85;14.77;;;-2.50;99.90;;;;;;4146031;28;20038;-62
2022/12/15 03:49:55;;;;;;;32.42;14.73;;;-2.50;99.90;;;;;;4146059;28;20366;-62
2022/12/15 03:51:55;;;;;;;27.98;14.75;;;-2.50;99.90;;;;;;4145668;28;20045;-62
2022/12/15 03:53:57;;;;;;;31.63;13.65;;;-2.50;99.90;;;;;;4147479;28;20481;-62
2022/12/15 03:55:58;;;;;;;25.67;12.68;;;-2.40;99.90;;;;;;4152653;28;20411;-62
2022/12/15 03:57:58;;;;;;;25.63;13.65;;;-2.50;99.90;;;;;;4146007;28;20062;-62
2022/12/15 03:59:59;;;;;;;27.23;13.88;;;-2.40;99.90;;;;;;4146050;28;20037;-62
2022/12/15 04:01:59;;;;;;;32.60;14.90;;;-2.40;99.90;;;;;;4145609;28;20077;-62
2022/12/15 04:04:01;;;;;;;27.92;14.40;;;-2.50;99.90;;;;;;4146947;28;20469;-62
2022/12/15 04:06:02;;;;;;;29.77;13.98;;;-2.40;99.90;;;;;;4140256;28;20030;-62
2022/12/15 04:08:03;;;;;;;28.00;13.80;;;-2.40;99.90;;;;;;4145805;28;20429;-62
2022/12/15 04:10:04;;;;;;;27.48;12.93;;;-2.50;99.90;;;;;;4145410;28;20576;-63
2022/12/15 04:12:04;;;;;;;29.70;13.77;;;-2.40;99.90;;;;;;4145534;28;20136;-62
2022/12/15 04:14:05;;;;;;;32.45;14.10;;;-2.50;99.90;;;;;;4146471;28;20173;-62
2022/12/15 04:16:06;;;;;;;30.15;13.90;;;-2.50;99.90;;;;;;4140020;28;20466;-62
2022/12/15 04:18:09;;;;;;;29.38;14.18;;;-2.50;99.90;;;;;;4145608;28;20037;-61
2022/12/15 04:20:10;;;;;;;28.13;13.70;;;-2.50;99.90;;;;;;4145338;28;20487;-62
2022/12/15 04:22:10;;;;;;;29.00;14.20;;;-2.50;99.90;;;;;;4146192;28;20038;-62
2022/12/15 05:31:51;;;;;;;33.35;14.90;;;-2.70;99.90;;;;;;4143649;28;20064;-62
2022/12/15 05:33:52;;;;;;;33.67;15.70;;;-2.60;99.90;;;;;;4145206;28;20087;-62
2022/12/15 05:35:56;;;;;;;36.58;16.27;;;-2.70;99.90;;;;;;4143485;28;20116;-62
2022/12/15 05:37:57;;;;;;;43.40;17.33;;;-2.70;99.90;;;;;;4144103;28;20129;-62
2022/12/15 05:39:57;;;;;;;58.28;20.63;;;-2.70;99.90;;;;;;4142358;28;20099;-62
2022/12/15 05:41:58;;;;;;;50.30;20.77;;;-2.60;99.90;;;;;;4143997;28;20042;-62
2022/12/15 05:43:59;;;;;;;47.13;19.58;;;-2.60;99.90;;;;;;4144065;28;20087;-62
2022/12/15 05:46:05;;;;;;;39.38;17.95;;;-2.70;99.90;;;;;;4146333;28;22288;-62
2022/12/15 05:48:05;;;;;;;41.95;17.13;;;-2.60;99.90;;;;;;4139340;28;20037;-62
2022/12/15 05:50:07;;;;;;;33.38;15.75;;;-2.70;99.90;;;;;;4142470;28;20101;-62
2022/12/15 05:52:07;;;;;;;36.38;15.93;;;-2.70;99.90;;;;;;4143163;28;20046;-62
2022/12/15 05:54:10;;;;;;;37.72;17.25;;;-2.70;99.90;;;;;;4140244;28;20449;-62
2022/12/15 05:56:12;;;;;;;33.80;17.05;;;-2.70;99.90;;;;;;4144669;28;20042;-62
2022/12/15 05:58:13;;;;;;;34.15;15.93;;;-2.80;99.90;;;;;;4141664;28;20111;-62
2022/12/15 06:00:14;;;;;;;34.83;17.58;;;-2.70;99.90;;;;;;4130544;28;20077;-62
2022/12/15 06:02:14;;;;;;;32.80;14.90;;;-2.80;99.90;;;;;;4134737;28;20049;-62
2022/12/15 06:04:15;;;;;;;32.45;15.75;;;-2.70;99.90;;;;;;4128896;28;20046;-62
2022/12/15 06:06:16;;;;;;;35.10;16.42;;;-2.70;99.90;;;;;;4129042;28;20373;-62
2022/12/15 06:08:17;;;;;;;34.25;16.40;;;-2.70;99.90;;;;;;4138075;28;20038;-62
2022/12/15 06:10:17;;;;;;;34.10;16.30;;;-2.70;99.90;;;;;;4142118;28;20373;-62
2022/12/15 06:12:18;;;;;;;28.85;15.18;;;-2.70;99.90;;;;;;4141130;28;20064;-63
2022/12/15 06:14:18;;;;;;;31.33;14.70;;;-2.70;99.90;;;;;;4133039;28;20384;-62
2022/12/15 06:16:20;;;;;;;40.08;18.20;;;-2.70;99.90;;;;;;4129353;28;21646;-62
2022/12/15 06:18:21;;;;;;;40.45;17.98;;;-2.70;99.90;;;;;;4138111;28;20033;-62
2022/12/15 06:20:23;;;;;;;33.60;16.20;;;-2.80;99.90;;;;;;4136524;28;20042;-62
2022/12/15 06:22:23;;;;;;;32.67;15.90;;;-2.70;99.90;;;;;;4135860;28;20772;-62
2022/12/15 06:24:24;;;;;;;36.45;17.20;;;-2.70;99.90;;;;;;4137674;28;20969;-62
2022/12/15 06:26:28;;;;;;;33.03;16.52;;;-2.70;99.90;;;;;;4132421;28;20065;-62
2022/12/15 06:28:28;;;;;;;36.03;16.08;;;-2.70;99.90;;;;;;4134907;28;20124;-62
2022/12/15 06:30:29;;;;;;;35.25;17.67;;;-2.70;99.90;;;;;;4130130;28;20065;-62
2022/12/15 06:32:29;;;;;;;35.75;17.85;;;-2.70;99.90;;;;;;4134145;28;20050;-62
2022/12/15 06:34:30;;;;;;;37.10;17.63;;;-2.70;99.90;;;;;;4129266;28;20511;-62
2022/12/15 06:36:31;;;;;;;39.38;17.42;;;-2.70;99.90;;;;;;4131874;28;20085;-62
2022/12/15 06:38:32;;;;;;;34.60;17.30;;;-2.70;99.90;;;;;;4134483;28;20057;-64
2022/12/15 06:40:33;;;;;;;32.00;15.93;;;-2.60;99.90;;;;;;4129682;28;20069;-61
2022/12/15 06:42:33;;;;;;;37.80;17.38;;;-2.60;99.90;;;;;;4130233;28;20096;-61
2022/12/15 06:44:34;;;;;;;33.80;16.90;;;-2.50;99.90;;;;;;4135972;28;20087;-61
2022/12/15 06:46:35;;;;;;;37.75;17.05;;;-2.50;99.90;;;;;;4132700;28;20092;-61
2022/12/15 06:48:35;;;;;;;44.50;18.23;;;-2.50;99.90;;;;;;4128290;28;20041;-61
2022/12/15 06:50:36;;;;;;;47.35;19.80;;;-2.50;99.90;;;;;;4128809;28;20038;-61
2022/12/15 06:52:36;;;;;;;43.33;20.05;;;-2.50;99.90;;;;;;4131545;28;20054;-61
2022/12/15 06:54:37;;;;;;;38.88;18.23;;;-2.50;99.90;;;;;;4129255;28;20041;-61
2022/12/15 06:56:38;;;;;;;40.47;17.98;;;-2.50;99.90;;;;;;4135024;28;20033;-62
2022/12/15 06:58:41;;;;;;;37.72;16.15;;;-2.50;99.90;;;;;;4131483;28;20041;-63
2022/12/15 07:00:44;;;;;;;32.60;16.00;;;-2.50;99.90;;;;;;4112742;28;20037;-62
2022/12/15 07:02:44;;;;;;;45.70;17.98;;;-2.40;99.90;;;;;;4139252;28;20455;-61
2022/12/15 07:04:45;;;;;;;41.60;18.15;;;-2.50;99.90;;;;;;4160164;28;20037;-61
2022/12/15 07:06:46;;;;;;;41.53;18.67;;;-2.40;99.90;;;;;;4135171;28;20057;-62
2022/12/15 07:08:52;;;;;;;40.90;18.23;;;-2.50;99.90;;;;;;4135691;28;20405;-62
2022/12/15 07:10:53;;;;;;;39.50;18.33;;;-2.40;99.90;;;;;;4138396;28;20567;-62
2022/12/15 07:12:56;;;;;;;44.00;17.95;;;-2.40;99.90;;;;;;4140165;28;20057;-62
2022/12/15 07:14:57;;;;;;;39.55;18.02;;;-2.40;99.90;;;;;;4135057;28;20034;-63
2022/12/15 07:16:57;;;;;;;41.47;19.02;;;-2.50;99.90;;;;;;4136712;28;20053;-63
2022/12/15 07:18:58;;;;;;;37.17;16.48;;;-2.50;99.90;;;;;;4134860;28;20048;-62
2022/12/15 07:21:07;;;;;;;35.03;16.45;;;-2.50;99.90;;;;;;4130829;28;20061;-61
2022/12/15 07:23:08;;;;;;;32.88;15.20;;;-2.60;99.90;;;;;;4133858;28;20043;-61
2022/12/15 07:25:09;;;;;;;31.63;15.48;;;-2.50;99.90;;;;;;4113404;28;20027;-64
2022/12/15 07:27:10;;;;;;;31.77;15.63;;;-2.50;99.90;;;;;;4120829;28;20038;-63
2022/12/15 07:29:10;;;;;;;35.88;16.52;;;-2.50;99.90;;;;;;4128904;28;20049;-63
2022/12/15 07:31:11;;;;;;;31.80;14.80;;;-2.50;99.90;;;;;;4123505;28;20050;-63
2022/12/15 07:33:12;;;;;;;30.23;15.50;;;-2.50;99.90;;;;;;4102385;28;20477;-63
2022/12/15 07:35:13;;;;;;;35.63;16.30;;;-2.60;99.90;;;;;;4138667;28;20759;-64
2022/12/15 07:37:15;;;;;;;31.92;16.10;;;-2.60;99.90;;;;;;4094935;28;20038;-63
2022/12/15 07:39:15;;;;;;;36.50;16.53;;;-2.60;99.90;;;;;;4119976;28;20038;-63
2022/12/15 07:41:18;;;;;;;35.95;17.40;;;-2.70;99.90;;;;;;4112558;28;20335;-63
2022/12/15 07:43:20;;;;;;;33.95;16.30;;;-2.70;99.90;;;;;;4142957;28;20366;-62
2022/12/15 07:45:21;;;;;;;37.53;19.23;;;-2.70;99.90;;;;;;4121604;28;20099;-63
2022/12/15 07:47:22;;;;;;;40.22;19.38;;;-2.70;99.90;;;;;;4132352;28;20037;-63
2022/12/15 07:49:22;;;;;;;40.10;18.88;;;-2.70;99.90;;;;;;4138038;28;20490;-63
2022/12/15 07:51:23;;;;;;;35.08;17.35;;;-2.70;99.90;;;;;;4105587;28;20093;-63
2022/12/15 07:53:26;;;;;;;33.40;16.67;;;-2.70;99.90;;;;;;4102409;28;20030;-63
2022/12/15 07:55:27;;;;;;;30.85;15.60;;;-2.70;99.90;;;;;;4126832;28;20639;-63
2022/12/15 07:57:27;;;;;;;34.38;15.18;;;-2.70;99.90;;;;;;4129090;28;20042;-64
2022/12/15 07:59:29;;;;;;;37.10;16.92;;;-2.70;99.90;;;;;;4128622;28;20042;-63
2022/12/15 08:01:30;;;;;;;32.78;16.15;;;-2.70;99.90;;;;;;4125372;28;20182;-64
2022/12/15 08:03:31;;;;;;;34.50;16.00;;;-2.60;99.90;;;;;;4133381;28;20074;-63
2022/12/15 08:05:32;;;;;;;35.95;17.35;;;-2.70;99.90;;;;;;4132871;28;20069;-64
2022/12/15 08:07:32;;;;;;;39.05;17.80;;;-2.70;99.90;;;;;;4103048;28;20042;-64
2022/12/15 08:09:33;;;;;;;33.90;17.27;;;-2.70;99.90;;;;;;4132915;28;20046;-64
2022/12/15 08:11:34;;;;;;;32.65;15.50;;;-2.60;99.90;;;;;;4135770;28;20046;-64
2022/12/15 08:13:36;;;;;;;31.63;16.17;;;-2.60;99.90;;;;;;4128471;28;20111;-64
2022/12/15 08:15:37;;;;;;;34.63;16.45;;;-2.60;99.90;;;;;;4144680;28;20245;-63
2022/12/15 08:17:37;;;;;;;31.75;16.00;;;-2.50;99.90;;;;;;4130801;28;20145;-64
2022/12/15 08:19:38;;;;;;;37.65;16.23;;;-2.40;99.90;;;;;;4125814;28;20050;-64
2022/12/15 08:21:40;;;;;;;33.28;16.48;;;-2.40;99.90;;;;;;4137510;28;20377;-63
2022/12/15 08:23:41;;;;;;;30.98;16.02;;;-2.30;99.90;;;;;;4138791;28;20045;-63
2022/12/15 08:25:42;;;;;;;34.78;16.88;;;-2.30;99.90;;;;;;4139097;28;20034;-63
2022/12/15 08:27:42;;;;;;;30.33;15.13;;;-2.30;99.90;;;;;;4129782;28;20375;-64
2022/12/15 08:29:43;;;;;;;37.58;16.13;;;-2.30;99.90;;;;;;4132467;28;20026;-64
2022/12/15 08:31:43;;;;;;;33.33;16.60;;;-2.30;99.90;;;;;;4138966;28;20113;-64
2022/12/15 08:33:44;;;;;;;32.20;16.55;;;-2.30;99.90;;;;;;4134295;28;20578;-63
2022/12/15 08:35:46;;;;;;;37.08;16.95;;;-2.20;99.90;;;;;;4125613;28;20049;-63
2022/12/15 08:37:46;;;;;;;29.58;15.70;;;-2.20;99.90;;;;;;4136161;28;20043;-63
2022/12/15 08:39:47;;;;;;;36.10;16.80;;;-2.20;99.90;;;;;;4140542;28;20409;-63
2022/12/15 08:41:48;;;;;;;34.38;17.00;;;-2.20;99.90;;;;;;4105954;28;20045;-62
2022/12/15 08:43:50;;;;;;;37.88;18.02;;;-2.20;99.90;;;;;;4128011;28;20034;-63
2022/12/15 08:45:50;;;;;;;35.85;16.85;;;-2.20;99.90;;;;;;4134340;28;20616;-63
2022/12/15 08:47:51;;;;;;;36.30;18.17;;;-2.20;99.90;;;;;;4112944;28;20030;-63
2022/12/15 08:49:53;;;;;;;38.20;18.13;;;-2.20;99.90;;;;;;4130908;28;20046;-63
2022/12/15 08:51:54;;;;;;;37.30;17.73;;;-2.10;99.90;;;;;;4114660;28;20492;-64
2022/12/15 08:53:56;;;;;;;36.45;18.13;;;-2.20;99.90;;;;;;4116526;28;20042;-64
2022/12/15 08:56:05;;;;;;;37.20;17.85;;;-2.10;99.90;;;;;;4127896;28;20042;-63
2022/12/15 08:58:05;;;;;;;39.55;17.67;;;-2.10;99.90;;;;;;4119531;28;20042;-63
2022/12/15 09:00:07;;;;;;;37.08;17.52;;;-2.10;99.90;;;;;;4105148;28;20073;-64
2022/12/15 09:02:10;;;;;;;32.00;15.35;;;-2.20;99.90;;;;;;4124513;28;20049;-63
2022/12/15 09:04:11;;;;;;;35.15;17.85;;;-2.20;99.90;;;;;;4135439;28;20038;-63
2022/12/15 09:06:15;;;;;;;35.85;17.52;;;-2.10;99.90;;;;;;4071305;28;20037;-63
2022/12/15 09:08:15;;;;;;;38.83;19.70;;;-2.10;99.90;;;;;;4095341;28;20034;-63
2022/12/15 09:10:16;;;;;;;39.08;18.45;;;-2.10;99.90;;;;;;4080473;28;20027;-63
2022/12/15 09:12:17;;;;;;;35.65;18.33;;;-2.10;99.90;;;;;;4081780;28;20050;-63
2022/12/15 09:14:18;;;;;;;39.33;17.70;;;-2.10;99.90;;;;;;4130367;28;20405;-63
2022/12/15 09:16:19;;;;;;;35.30;17.10;;;-2.10;99.90;;;;;;4133762;28;20500;-63
2022/12/15 09:18:20;;;;;;;35.87;17.60;;;-2.00;99.90;;;;;;4132519;28;20038;-63
2022/12/15 09:20:21;;;;;;;31.70;16.20;;;-2.00;99.90;;;;;;4130190;28;20473;-63
2022/12/15 09:22:21;;;;;;;37.47;17.98;;;-1.90;99.90;;;;;;4133927;28;20030;-63
2022/12/15 09:24:23;;;;;;;40.47;17.63;;;-1.90;99.90;;;;;;4132159;28;20077;-63
2022/12/15 09:26:23;;;;;;;34.88;17.60;;;-1.80;99.90;;;;;;4131892;28;20378;-63
2022/12/15 09:28:25;;;;;;;32.90;16.85;;;-1.80;99.90;;;;;;4134878;28;20105;-63
2022/12/15 09:30:25;;;;;;;39.15;18.77;;;-1.80;99.90;;;;;;4128946;28;20050;-63
2022/12/15 09:32:26;;;;;;;32.22;17.00;;;-1.70;99.90;;;;;;4136031;28;20053;-63
2022/12/15 09:34:26;;;;;;;35.50;17.77;;;-1.70;99.90;;;;;;4135699;28;20041;-63
2022/12/15 09:36:29;;;;;;;39.03;18.58;;;-1.60;99.90;;;;;;4135706;28;20050;-63
2022/12/15 09:38:31;;;;;;;36.60;18.33;;;-1.60;99.90;;;;;;4137569;28;20030;-63
2022/12/15 09:40:32;;;;;;;37.67;18.15;;;-1.60;99.90;;;;;;4135610;28;20030;-64
2022/12/15 09:42:33;;;;;;;33.33;17.77;;;-1.50;99.90;;;;;;4136767;28;20042;-63
2022/12/15 09:44:34;;;;;;;41.60;19.60;;;-1.40;99.90;;;;;;4129602;28;20126;-63
2022/12/15 09:47:05;;;;;;;39.72;19.35;;;-1.40;99.90;;;;;;4133548;28;20560;-64
2022/12/15 09:49:17;;;;;;;38.95;19.70;;;-1.30;99.90;;;;;;4132789;28;20042;-64
2022/12/15 09:51:19;;;;;;;40.33;20.02;;;-1.20;99.90;;;;;;4132512;28;20046;-63
2022/12/15 09:53:23;;;;;;;42.75;19.45;;;-1.10;99.90;;;;;;4139849;28;20049;-64
2022/12/15 09:55:27;;;;;;;39.65;18.30;;;-1.10;99.90;;;;;;4127546;28;20053;-64
2022/12/15 09:57:41;;;;;;;38.85;18.42;;;-1.10;99.90;;;;;;4134719;28;20034;-64
2022/12/15 10:00:06;;;;;;;40.17;19.58;;;-1.10;99.90;;;;;;4135187;28;20069;-64
2022/12/15 10:02:34;;;;;;;45.03;20.40;;;-1.00;99.90;;;;;;4135653;28;20124;-63
2022/12/15 10:04:59;;;;;;;40.45;19.17;;;-1.10;99.90;;;;;;4139724;28;20068;-64
2022/12/15 10:07:38;;;;;;;40.95;20.90;;;-1.00;99.90;;;;;;4132745;28;20503;-64
2022/12/15 10:09:39;;;;;;;43.95;20.83;;;-1.00;99.90;;;;;;4114956;28;20041;-64
2022/12/15 10:11:52;;;;;;;39.72;19.88;;;-1.00;99.90;;;;;;4135651;28;20551;-64
2022/12/15 10:14:26;;;;;;;45.70;21.55;;;-0.90;99.90;;;;;;4136762;28;20038;-64
2022/12/15 10:16:35;;;;;;;47.22;21.60;;;-0.90;99.90;;;;;;4137023;28;20034;-64
2022/12/15 10:19:12;;;;;;;43.28;20.35;;;-0.80;99.90;;;;;;4141888;28;20042;-64
2022/12/15 10:21:13;;;;;;;49.58;22.60;;;-0.80;99.90;;;;;;4134076;28;20129;-64
2022/12/15 10:23:16;;;;;;;49.95;22.17;;;-0.80;99.90;;;;;;4141696;28;20044;-64
2022/12/15 10:25:24;;;;;;;51.92;22.77;;;-0.80;99.90;;;;;;4135893;28;20033;-64
2022/12/15 10:28:01;;;;;;;49.85;23.90;;;-0.70;99.90;;;;;;4132771;28;20034;-64
2022/12/15 10:30:05;;;;;;;55.70;23.95;;;-0.70;99.90;;;;;;4133115;28;20461;-64
2022/12/15 10:32:28;;;;;;;52.67;24.48;;;-0.60;99.90;;;;;;4132432;28;20050;-64
2022/12/15 10:34:33;;;;;;;55.08;24.60;;;-0.50;99.90;;;;;;4136986;28;20598;-64
2022/12/15 10:36:34;;;;;;;57.47;25.25;;;-0.60;99.90;;;;;;4140219;28;23096;-64
2022/12/15 10:38:41;;;;;;;61.55;27.13;;;-0.50;99.90;;;;;;4136627;28;20057;-64
2022/12/15 10:40:48;;;;;;;58.45;25.23;;;-0.40;99.90;;;;;;4131805;28;20617;-64
2022/12/15 10:42:49;;;;;;;55.72;25.48;;;-0.40;99.90;;;;;;4139403;28;20097;-64
2022/12/15 10:44:53;;;;;;;57.53;24.63;;;-0.40;99.90;;;;;;4132685;28;20034;-64
2022/12/15 10:46:54;;;;;;;58.10;25.48;;;-0.30;99.90;;;;;;4131405;28;20049;-64
2022/12/15 10:49:14;;;;;;;56.92;26.02;;;-0.40;99.90;;;;;;4144077;28;20042;-64
2022/12/15 10:51:19;;;;;;;54.80;25.05;;;-0.30;99.90;;;;;;4138756;28;21912;-64
2022/12/15 10:53:58;;;;;;;63.83;27.77;;;-0.30;99.90;;;;;;4136937;28;20117;-64
2022/12/15 10:56:02;;;;;;;59.65;25.95;;;-0.30;99.90;;;;;;4130422;28;20046;-64
2022/12/15 10:58:17;;;;;;;57.72;26.65;;;-0.30;99.90;;;;;;4139510;28;20048;-64
2022/12/15 11:00:18;;;;;;;66.15;27.73;;;-0.30;99.90;;;;;;4130115;28;20077;-64
2022/12/15 11:02:31;;;;;;;65.25;27.05;;;-0.30;99.90;;;;;;4128208;28;20465;-64
2022/12/15 11:04:32;;;;;;;61.38;27.50;;;-0.20;99.90;;;;;;4129490;28;20046;-64
2022/12/15 11:06:35;;;;;;;58.80;26.58;;;-0.20;99.90;;;;;;4129620;28;20038;-64
2022/12/15 11:08:36;;;;;;;57.55;26.70;;;-0.20;99.90;;;;;;4129806;28;20046;-64
2022/12/15 11:13:16;;;;;;;59.80;26.33;;;-0.20;99.90;;;;;;4130801;28;20057;-64
2022/12/15 11:15:20;;;;;;;62.13;27.67;;;-0.10;99.90;;;;;;4130771;28;20073;-64
2022/12/15 11:17:22;;;;;;;63.03;28.08;;;-0.10;99.90;;;;;;4125747;28;20070;-64
2022/12/15 11:19:35;;;;;;;61.47;27.33;;;-0.10;99.90;;;;;;4133978;28;20073;-64
2022/12/15 11:21:43;;;;;;;65.55;28.88;;;-0.10;99.90;;;;;;4140209;28;21709;-64
2022/12/15 11:24:09;;;;;;;66.82;30.45;;;-0.10;99.90;;;;;;4144424;28;20116;-64
2022/12/15 11:26:39;;;;;;;58.70;27.38;;;-0.10;99.90;;;;;;4143377;28;20030;-64
2022/12/15 11:29:12;;;;;;;55.67;27.75;;;-0.10;99.90;;;;;;4143697;28;20151;-64
2022/12/15 11:31:31;;;;;;;;;;;-0.10;99.90;;;;;;4126997;28;20088;-64
2022/12/15 11:33:32;;;;;;;60.67;28.92;;;-0.10;99.90;;;;;;4131754;28;19922;-64
2022/12/15 11:35:55;;;;;;;64.78;30.77;;;0.00;99.90;;;;;;4126557;28;20493;-64
2022/12/15 11:38:30;;;;;;;68.00;31.17;;;0.00;99.90;;;;;;4138465;28;20042;-64
2022/12/15 11:40:40;;;;;;;62.88;29.77;;;0.00;99.90;;;;;;4126972;28;20042;-64
2022/12/15 11:43:11;;;;;;;67.78;30.95;;;0.00;99.90;;;;;;4128581;28;20047;-64
2022/12/15 11:45:12;;;;;;;63.53;30.30;;;0.00;99.90;;;;;;4140551;28;20044;-64
2022/12/15 11:47:21;;;;;;;60.58;29.70;;;0.00;99.90;;;;;;4145478;28;20066;-64
2022/12/15 11:49:41;;;;;;;66.72;31.00;;;0.10;99.90;;;;;;4130376;28;20474;-64
2022/12/15 11:51:57;;;;;;;68.55;30.38;;;0.00;99.90;;;;;;4129289;28;20053;-64
2022/12/15 11:54:19;;;;;;;63.45;30.23;;;0.10;99.90;;;;;;4132350;28;20481;-64
2022/12/15 11:56:39;;;;;;;63.78;29.70;;;0.10;99.90;;;;;;4129974;28;20026;-64
2022/12/15 11:58:58;;;;;;;58.20;27.45;;;0.20;99.90;;;;;;4126508;28;20034;-64
2022/12/15 12:01:21;;;;;;;54.20;27.40;;;0.20;99.90;;;;;;4126259;28;20093;-64
2022/12/15 12:03:35;;;;;;;61.70;29.73;;;0.30;99.90;;;;;;4137784;28;20095;-64
2022/12/15 12:05:57;;;;;;;62.60;30.40;;;0.30;99.90;;;;;;4133123;28;20261;-64
2022/12/15 12:08:13;;;;;;;60.55;29.50;;;0.40;99.90;;;;;;4134559;28;20083;-64
2022/12/15 12:10:38;;;;;;;65.75;32.50;;;0.40;99.90;;;;;;4126666;28;20038;-64
2022/12/15 12:12:47;;;;;;;64.88;32.25;;;0.50;99.90;;;;;;4134101;28;20053;-64
2022/12/15 12:15:04;;;;;;;70.38;31.67;;;0.50;99.90;;;;;;4138073;28;20421;-64
2022/12/15 12:17:07;;;;;;;64.43;31.83;;;0.50;99.90;;;;;;4129023;28;20042;-64
2022/12/15 12:19:43;;;;;;;63.15;31.48;;;0.60;99.90;;;;;;4127490;28;20062;-64
2022/12/15 12:21:48;;;;;;;67.45;31.88;;;0.60;99.90;;;;;;4123860;28;20046;-64
2022/12/15 12:23:58;;;;;;;67.78;32.92;;;0.60;99.90;;;;;;4137498;28;20044;-64
2022/12/15 12:26:29;;;;;;;70.07;33.53;;;0.60;99.90;;;;;;4134005;28;20508;-64
2022/12/15 12:29:02;;;;;;;67.82;32.63;;;0.60;99.90;;;;;;4122187;28;20038;-64
2022/12/15 12:31:10;;;;;;;67.88;33.00;;;0.50;99.90;;;;;;4137560;28;20126;-64
2022/12/15 12:33:16;;;;;;;69.45;34.03;;;0.50;99.90;;;;;;4134048;28;20117;-64
2022/12/15 12:35:38;;;;;;;75.97;34.08;;;0.50;99.90;;;;;;4129629;28;20117;-65
2022/12/15 12:37:51;;;;;;;73.57;34.45;;;0.50;99.90;;;;;;4134399;28;20061;-64
2022/12/15 12:39:59;;;;;;;73.00;34.42;;;0.40;99.90;;;;;;4134707;28;20145;-64
2022/12/15 12:42:13;;;;;;;68.95;34.67;;;0.30;99.90;;;;;;4132035;28;20435;-64
2022/12/15 12:44:32;;;;;;;71.90;34.55;;;0.30;99.90;;;;;;4133262;28;20038;-64
2022/12/15 12:46:39;;;;;;;66.57;32.55;;;0.30;99.90;;;;;;4130619;28;20042;-64
2022/12/15 12:48:52;;;;;;;71.10;33.58;;;0.30;99.90;;;;;;4133173;28;20042;-64
2022/12/15 12:51:23;;;;;;;64.93;33.47;;;0.30;99.90;;;;;;4130080;28;20042;-65
2022/12/15 12:53:31;;;;;;;65.85;32.90;;;0.20;99.90;;;;;;4131748;28;20039;-64
2022/12/15 12:55:42;;;;;;;62.15;31.38;;;0.30;99.90;;;;;;4130686;28;20033;-64
2022/12/15 12:57:44;;;;;;;62.67;32.13;;;0.30;99.90;;;;;;4137686;28;20070;-64
2022/12/15 12:59:55;;;;;;;66.25;33.17;;;0.30;99.90;;;;;;4143357;28;20124;-64
2022/12/15 13:02:15;;;;;;;65.40;32.83;;;0.30;99.90;;;;;;4140901;28;20042;-64
2022/12/15 13:04:27;;;;;;;63.22;31.23;;;0.30;99.90;;;;;;4142226;28;20038;-66